Terminal Aerodrome Forecast
Issued by NWS Twin Cities, MN

Home | Current Version | Previous Version | Graphics & Text | Print | Product List | Glossary On
Versions: 1 2 3 4 5 6 7 8 9 10 11 12 13 14 15 16 17 18 19 20 21 22 23 24 25 26 27 28
000
FTUS43 KMPX 210250 AAA
TAFMSP
TAF AMD
KMSP 210250Z 2103/2206 32007KT P6SM SCT040 BKN200
     FM210600 01004KT P6SM SCT040 BKN100
     FM211100 03004KT P6SM BKN040 BKN250
     FM212000 16004KT P6SM BKN050 BKN080
     FM220200 33004KT P6SM SCT020 BKN050=

USA.gov is the U.S. government's official web portal to all federal, state and local government web resources and services.